Time;durP1;ratioP1;P1;durP2;ratioP2;P2;SDS_P1;SDS_P2;PMS_P1;PMS_P2;Temp;Humidity;BMP_temperature;BMP_pressure;BME280_temperature;BME280_humidity;BME280_pressure;Samples;Min_cycle;Max_cycle;Signal;HPM_P1;HPM_P2
2022/09/09 00:01:28;;;;;;;13.90;5.35;;;;;;;19.77;70.36;100625.31;5015318;28;20037;-76
2022/09/09 00:04:12;;;;;;;7.40;5.00;;;;;;;19.66;71.05;100614.13;5012071;28;20084;-75
2022/09/09 00:06:55;;;;;;;9.27;5.05;;;;;;;19.58;71.06;100598.44;5013969;28;20114;-75
2022/09/09 00:09:25;;;;;;;7.47;5.37;;;;;;;18.77;71.52;100481.44;5014778;28;20083;-75
2022/09/09 00:12:43;;;;;;;11.00;5.75;;;;;;;19.51;72.10;100622.66;5014508;28;20454;-78
2022/09/09 00:15:14;;;;;;;7.15;4.93;;;;;;;19.46;73.10;100624.59;4939883;28;20051;-74
2022/09/09 00:17:54;;;;;;;7.28;5.55;;;;;;;19.40;72.99;100612.34;5009653;28;20049;-76
2022/09/09 00:20:25;;;;;;;7.68;4.90;;;;;;;19.27;73.45;100601.25;5015636;28;20073;-75
2022/09/09 00:23:00;;;;;;;6.30;4.93;;;;;;;19.35;74.15;100609.84;5014057;28;20050;-76
2022/09/09 00:26:00;;;;;;;10.48;5.65;;;;;;;19.50;72.84;100631.53;5014700;28;20508;-80
2022/09/09 00:28:30;;;;;;;14.57;5.97;;;;;;;18.58;73.92;100489.09;5015338;28;20548;-80
2022/09/09 00:31:00;;;;;;;12.85;5.45;;;;;;;18.56;73.79;100483.81;5013515;28;20045;-83
2022/09/09 00:33:27;;;;;;;11.98;5.97;;;;;;;19.24;74.52;100627.94;5017504;28;20047;-77
2022/09/09 00:35:58;;;;;;;7.75;5.88;;;;;;;18.43;75.25;100484.28;4995670;28;20048;-83
2022/09/09 00:38:25;;;;;;;7.90;5.22;;;;;;;19.18;75.10;100615.72;5016222;28;20090;-82
2022/09/09 00:41:01;;;;;;;8.00;5.63;;;;;;;19.28;75.07;100621.59;5016899;28;20049;-75
2022/09/09 00:43:31;;;;;;;16.08;5.85;;;;;;;19.12;76.48;100613.25;5014942;28;20049;-76
2022/09/09 00:46:33;;;;;;;10.43;5.28;;;;;;;19.23;75.90;100620.91;4994127;28;20530;-78
2022/09/09 00:49:01;;;;;;;11.13;6.90;;;;;;;19.17;75.68;100621.97;5013914;28;20171;-82
2022/09/09 00:51:34;;;;;;;11.80;5.70;;;;;;;19.06;76.78;100615.22;5012860;28;20029;-77
2022/09/09 00:54:23;;;;;;;8.23;5.70;;;;;;;18.98;79.87;100620.81;4997438;28;20057;-78
2022/09/09 00:57:00;;;;;;;12.27;6.65;;;;;;;18.25;79.83;100505.16;4999675;28;20060;-75
2022/09/09 00:59:52;;;;;;;7.32;5.88;;;;;;;18.41;81.85;100552.53;5016398;28;20057;-77
2022/09/09 01:02:51;;;;;;;10.30;6.32;;;;;;;18.69;82.84;100613.72;5012180;28;20141;-77
2022/09/09 01:05:29;;;;;;;8.27;6.45;;;;;;;18.75;82.30;100613.50;5015183;28;20572;-78
2022/09/09 01:07:58;;;;;;;13.15;11.43;;;;;;;18.71;82.50;100603.91;5018060;28;20084;-75
2022/09/09 01:10:50;;;;;;;11.75;10.38;;;;;;;18.64;83.20;100592.56;5013903;28;20046;-75
2022/09/09 01:13:25;;;;;;;14.05;11.68;;;;;;;18.40;83.69;100598.59;5017580;28;20742;-81
2022/09/09 01:15:53;;;;;;;14.68;11.27;;;;;;;18.32;84.78;100609.47;5011277;28;20175;-75
2022/09/09 01:18:26;;;;;;;16.10;11.55;;;;;;;18.43;84.23;100591.44;5017799;28;20076;-77
2022/09/09 01:21:08;;;;;;;15.95;11.10;;;;;;;18.37;85.49;100617.31;5030206;28;20337;-74
2022/09/09 01:23:55;;;;;;;16.80;12.25;;;;;;;18.12;87.20;100613.56;5033012;28;20048;-77
2022/09/09 01:26:23;;;;;;;18.88;11.10;;;;;;;17.87;nan;100570.03;5033055;28;20078;-78
2022/09/09 01:28:52;;;;;;;17.60;11.07;;;;;;;17.19;87.71;100478.06;5030167;28;20195;-74
2022/09/09 01:31:22;;;;;;;21.75;11.23;;;;;;;18.05;87.12;100592.53;5031854;28;20067;-81
2022/09/09 01:33:48;;;;;;;16.88;11.15;;;;;;;18.23;87.92;100617.69;5032203;28;20075;-76
2022/09/09 01:36:35;;;;;;;13.25;11.25;;;;;;;18.11;88.35;100584.38;5033096;28;20040;-81
2022/09/09 01:39:00;;;;;;;16.30;10.55;;;;;;;18.25;86.80;100618.53;5031209;28;20641;-74
2022/09/09 01:41:26;;;;;;;15.85;9.82;;;;;;;17.29;87.45;100484.88;5029802;28;20041;-75
2022/09/09 01:43:54;;;;;;;24.38;10.82;;;;;;;17.79;89.70;100602.03;5031952;28;20484;-75
2022/09/09 01:46:22;;;;;;;11.95;10.32;;;;;;;17.67;90.21;100603.22;5029262;28;20050;-74
2022/09/09 01:48:49;;;;;;;32.65;11.48;;;;;;;17.55;91.44;100597.38;5032363;28;20674;-80
2022/09/09 01:51:15;;;;;;;16.33;10.07;;;;;;;17.45;90.68;100587.00;5032800;28;20056;-80
2022/09/09 01:53:42;;;;;;;14.27;10.13;;;;;;;16.65;90.86;100426.41;5030628;28;20183;-77
2022/09/09 01:56:24;;;;;;;20.33;11.70;;;;;;;17.42;90.88;100559.66;5029994;28;20052;-73
2022/09/09 01:59:04;;;;;;;13.43;10.13;;;;;;;17.59;90.17;100564.56;5029474;28;20073;-75
2022/09/09 02:01:53;;;;;;;16.85;10.48;;;;;;;17.84;90.63;100616.13;5030409;28;20098;-73
2022/09/09 02:04:30;;;;;;;30.70;11.70;;;;;;;17.56;91.76;100618.59;5020889;28;20056;-73
2022/09/09 02:06:56;;;;;;;25.30;10.73;;;;;;;16.71;91.26;100500.41;5030610;28;20064;-75
2022/09/09 02:09:24;;;;;;;22.95;11.48;;;;;;;17.54;90.83;100617.75;5014551;28;20502;-75
2022/09/09 02:11:56;;;;;;;17.70;10.13;;;;;;;17.44;91.45;100622.41;5033561;28;20045;-73
2022/09/09 02:14:27;;;;;;;17.08;10.73;;;;;;;16.90;92.05;100553.03;5031154;28;20092;-74
2022/09/09 02:17:17;;;;;;;25.17;12.07;;;;;;;16.40;92.91;100477.28;5031569;28;20059;-74
2022/09/09 02:19:49;;;;;;;22.55;11.25;;;;;;;16.40;93.17;100479.09;5015625;28;20045;-75
2022/09/09 02:22:19;;;;;;;15.73;10.43;;;;;;;17.25;93.39;100621.09;4993099;28;20061;-74
2022/09/09 02:24:46;;;;;;;14.18;9.57;;;;;;;17.37;92.30;100619.94;5010860;28;20552;-73
2022/09/09 02:27:12;;;;;;;13.00;9.23;;;;;;;16.56;91.86;100475.16;5014891;28;20095;-73
2022/09/09 02:29:44;;;;;;;18.98;11.13;;;;;;;17.20;91.64;100580.56;5011731;28;20056;-73
2022/09/09 02:32:19;;;;;;;25.27;9.57;;;;;;;17.33;91.78;100603.25;5014119;28;20049;-72
2022/09/09 02:34:52;;;;;;;24.30;10.00;;;;;;;17.17;92.53;100607.19;5014862;28;20061;-74
2022/09/09 02:37:20;;;;;;;12.70;9.90;;;;;;;17.20;92.05;100605.31;5015462;28;20034;-75
2022/09/09 02:39:46;;;;;;;18.83;11.27;;;;;;;16.96;93.81;100552.88;4993093;28;20389;-74
2022/09/09 02:42:14;;;;;;;17.02;11.88;;;;;;;17.05;95.71;100587.13;5015503;28;20045;-75
2022/09/09 02:44:41;;;;;;;14.27;11.38;;;;;;;17.12;96.13;100604.63;5014405;28;20052;-76
2022/09/09 02:47:29;;;;;;;22.08;11.73;;;;;;;17.11;95.71;100610.81;5011240;28;21750;-77
2022/09/09 02:50:13;;;;;;;16.65;10.30;;;;;;;17.12;95.21;100611.72;5014620;28;20164;-75
2022/09/09 02:53:21;;;;;;;15.77;9.85;;;;;;;17.16;93.47;100614.28;5014600;28;20524;-75
2022/09/09 02:55:53;;;;;;;14.60;10.20;;;;;;;16.69;94.52;100592.31;5015000;28;20049;-75
2022/09/09 02:58:18;;;;;;;18.60;9.70;;;;;;;17.08;93.58;100605.59;5012515;28;20049;-77
2022/09/09 03:00:49;;;;;;;12.98;8.95;;;;;;;16.98;94.12;100612.03;5013458;28;20030;-78
2022/09/09 03:03:16;;;;;;;12.63;8.52;;;;;;;16.60;95.29;100588.13;4996099;28;20652;-74
2022/09/09 03:05:42;;;;;;;16.23;10.13;;;;;;;17.02;94.57;100614.59;5012440;28;20057;-73
2022/09/09 03:08:09;;;;;;;10.43;8.85;;;;;;;17.14;94.18;100607.22;5012910;28;20052;-75
2022/09/09 03:10:35;;;;;;;16.70;9.98;;;;;;;17.16;94.15;100608.97;5012960;28;20053;-74
2022/09/09 03:13:00;;;;;;;12.52;9.18;;;;;;;17.25;93.55;100610.50;4995565;28;20738;-76
2022/09/09 03:15:29;;;;;;;19.70;11.05;;;;;;;16.74;96.36;100541.88;5012831;28;20045;-74
2022/09/09 03:17:56;;;;;;;13.63;10.43;;;;;;;16.15;96.85;100449.63;5015188;28;20037;-77
2022/09/09 03:20:23;;;;;;;13.00;10.13;;;;;;;16.36;96.26;100488.84;5020683;28;21914;-75
2022/09/09 03:22:48;;;;;;;13.93;10.63;;;;;;;16.29;95.89;100478.44;4998869;28;20056;-73
2022/09/09 03:25:14;;;;;;;15.50;10.68;;;;;;;16.87;94.12;100589.28;5015942;28;20489;-74
2022/09/09 03:27:40;;;;;;;20.85;10.02;;;;;;;17.20;93.90;100626.53;5015218;28;20060;-75
2022/09/09 03:30:06;;;;;;;20.65;10.63;;;;;;;16.92;94.93;100620.13;5015955;28;20037;-75
2022/09/09 03:32:31;;;;;;;17.23;8.82;;;;;;;16.17;95.84;100512.22;5014982;28;20200;-75
2022/09/09 03:34:57;;;;;;;17.63;10.15;;;;;;;17.12;95.17;100619.69;5016312;28;20041;-74
2022/09/09 03:37:23;;;;;;;14.40;10.20;;;;;;;16.97;95.64;100597.03;5015816;28;20069;-78
2022/09/09 03:39:48;;;;;;;13.35;11.10;;;;;;;17.09;95.18;100624.16;5013898;28;20045;-74
2022/09/09 03:42:18;;;;;;;15.55;10.02;;;;;;;16.19;95.02;100502.47;5016657;28;20085;-73
2022/09/09 03:44:47;;;;;;;20.02;10.45;;;;;;;15.92;97.14;100480.13;5014030;28;20053;-75
2022/09/09 03:47:13;;;;;;;17.45;10.27;;;;;;;16.78;97.81;100625.69;4996146;28;20046;-73
2022/09/09 03:49:45;;;;;;;14.00;9.38;;;;;;;15.88;98.09;100480.22;5016196;28;20045;-75
2022/09/09 03:52:11;;;;;;;13.00;11.03;;;;;;;16.03;97.95;100482.53;5014551;28;20132;-77
2022/09/09 03:54:37;;;;;;;19.65;11.10;;;;;;;16.25;97.35;100494.41;5015035;28;20502;-75
2022/09/09 03:57:04;;;;;;;12.40;10.23;;;;;;;16.99;98.80;100625.25;4998718;28;20033;-74
2022/09/09 03:59:30;;;;;;;14.30;11.15;;;;;;;17.05;97.41;100614.50;5014234;28;20053;-73
2022/09/09 04:01:57;;;;;;;19.95;12.30;;;;;;;16.58;98.15;100531.66;5016058;28;20042;-73
2022/09/09 04:04:22;;;;;;;16.33;11.35;;;;;;;16.83;97.17;100571.75;4997268;28;21590;-74
2022/09/09 04:06:48;;;;;;;20.63;11.50;;;;;;;16.99;95.65;100576.66;5014136;28;20390;-73
2022/09/09 04:09:14;;;;;;;15.73;10.77;;;;;;;16.30;96.37;100453.72;5014055;28;20060;-75
2022/09/09 04:11:40;;;;;;;13.88;10.27;;;;;;;17.02;96.65;100582.78;4997805;28;20418;-76
2022/09/09 04:14:07;;;;;;;15.50;10.73;;;;;;;17.14;95.97;100597.53;5012501;28;20156;-73
2022/09/09 04:16:33;;;;;;;29.13;10.68;;;;;;;17.21;94.91;100600.91;4991732;28;20597;-73
2022/09/09 04:18:59;;;;;;;21.88;11.90;;;;;;;17.14;94.07;100586.91;5010852;28;20044;-73
2022/09/09 04:21:26;;;;;;;27.80;10.38;;;;;;;17.07;94.12;100564.09;5008797;28;20073;-79
2022/09/09 04:23:51;;;;;;;16.67;8.52;;;;;;;16.47;93.41;100464.78;5013621;28;20119;-75
2022/09/09 04:26:17;;;;;;;16.95;11.35;;;;;;;17.32;91.27;100617.41;5014151;28;20053;-73
2022/09/09 04:28:43;;;;;;;15.55;10.68;;;;;;;17.02;91.89;100613.69;5013198;28;20457;-73
2022/09/09 04:31:22;;;;;;;18.33;10.52;;;;;;;16.41;92.16;100491.41;5013138;28;20050;-74
2022/09/09 04:33:49;;;;;;;15.45;11.55;;;;;;;15.45;91.72;100360.25;5012751;28;20128;-73
2022/09/09 04:36:15;;;;;;;12.75;11.45;;;;;;;16.14;92.88;100482.31;5012923;28;20041;-75
2022/09/09 04:38:40;;;;;;;17.42;11.32;;;;;;;16.86;93.50;100602.59;5008244;28;20076;-75
2022/09/09 04:41:07;;;;;;;20.50;10.75;;;;;;;15.74;94.61;100431.09;5008834;28;20697;-76
2022/09/09 04:43:32;;;;;;;21.02;11.63;;;;;;;16.93;94.15;100613.91;5010872;28;20112;-77
2022/09/09 04:46:01;;;;;;;26.42;11.90;;;;;;;16.70;92.78;100567.59;5007995;28;20092;-77
2022/09/09 04:48:27;;;;;;;16.05;10.23;;;;;;;16.19;91.59;100465.41;5012013;28;20056;-76
2022/09/09 04:50:59;;;;;;;21.20;12.55;;;;;;;17.13;91.94;100624.94;5001741;28;20049;-74
2022/09/09 04:53:34;;;;;;;19.70;11.48;;;;;;;15.65;91.46;100358.97;5012508;28;20119;-80
2022/09/09 04:56:09;;;;;;;24.50;11.30;;;;;;;16.49;91.07;100476.22;5009075;28;20524;-73
2022/09/09 04:58:36;;;;;;;22.88;12.65;;;;;;;16.54;90.44;100481.41;4995651;28;20133;-78
2022/09/09 05:01:12;;;;;;;26.23;11.43;;;;;;;17.38;91.02;100622.56;5002231;28;20042;-74
2022/09/09 05:03:38;;;;;;;22.42;11.95;;;;;;;17.58;89.85;100618.53;5011742;28;20045;-73
2022/09/09 05:06:18;;;;;;;15.30;11.85;;;;;;;17.31;88.13;100480.41;5012673;28;20103;-73
2022/09/09 05:08:44;;;;;;;19.63;11.35;;;;;;;18.84;84.41;100596.44;4992994;28;20049;-76
2022/09/09 05:11:19;;;;;;;23.52;12.70;;;;;;;18.86;79.77;100459.00;5012120;28;20508;-75
2022/09/09 05:13:45;;;;;;;17.23;10.75;;;;;;;20.48;76.92;100624.56;5010905;28;20553;-73
2022/09/09 05:16:11;;;;;;;18.20;10.40;;;;;;;20.41;74.92;100534.16;5012949;28;20068;-73
2022/09/09 05:18:41;;;;;;;17.67;9.25;;;;;;;21.36;73.62;100611.34;5014738;28;20072;-77
2022/09/09 05:21:07;;;;;;;19.55;10.65;;;;;;;20.73;73.10;100459.19;5021193;28;20116;-75
2022/09/09 05:23:34;;;;;;;22.70;11.73;;;;;;;21.82;70.03;100570.22;4996721;28;20045;-78
2022/09/09 05:26:00;;;;;;;13.48;8.45;;;;;;;22.19;65.94;100600.63;5015784;28;20060;-73
2022/09/09 05:28:27;;;;;;;12.02;7.85;;;;;;;22.43;65.15;100582.63;5021266;28;20081;-74
2022/09/09 05:31:00;;;;;;;13.73;6.88;;;;;;;22.73;62.43;100583.00;5019901;28;20033;-74
2022/09/09 05:33:26;;;;;;;29.27;8.50;;;;;;;23.09;61.91;100600.06;5018533;28;20033;-76
2022/09/09 05:36:00;;;;;;;29.70;11.93;;;;;;;22.98;61.84;100584.47;5018495;28;20061;-72
2022/09/09 05:38:32;;;;;;;13.55;8.55;;;;;;;23.31;60.24;100619.44;5018619;28;20489;-72
2022/09/09 05:40:58;;;;;;;16.15;6.65;;;;;;;22.70;59.50;100504.69;5017221;28;20080;-74
2022/09/09 05:43:25;;;;;;;12.52;6.60;;;;;;;23.24;59.02;100560.94;5014388;28;20053;-75
2022/09/09 05:46:08;;;;;;;20.27;6.90;;;;;;;23.18;57.95;100501.41;5014198;28;20053;-78
2022/09/09 05:48:37;;;;;;;18.80;7.10;;;;;;;23.86;56.56;100577.41;5018389;28;22101;-73
2022/09/09 05:51:03;;;;;;;14.93;7.10;;;;;;;23.96;57.33;100600.97;5019688;28;20049;-73
2022/09/09 05:53:33;;;;;;;10.05;6.50;;;;;;;23.90;56.40;100561.09;5020329;28;20080;-77
2022/09/09 05:56:10;;;;;;;14.45;7.18;;;;;;;23.59;57.78;100513.59;5000858;28;20425;-73
2022/09/09 05:58:37;;;;;;;18.30;7.15;;;;;;;23.94;56.60;100581.44;5015391;28;20064;-73
2022/09/09 06:01:11;;;;;;;22.10;7.35;;;;;;;23.82;56.08;100546.38;4999548;28;20132;-76
2022/09/09 06:03:38;;;;;;;14.75;6.38;;;;;;;23.98;54.69;100558.88;5024279;28;20131;-73
2022/09/09 06:06:06;;;;;;;11.00;6.47;;;;;;;23.52;54.93;100466.66;5024595;28;20033;-74
2022/09/09 06:08:33;;;;;;;11.48;5.45;;;;;;;23.36;54.28;100454.03;5018764;28;20064;-76
2022/09/09 06:11:04;;;;;;;7.60;4.95;;;;;;;23.84;55.38;100561.44;5018696;28;20057;-78
2022/09/09 06:13:30;;;;;;;16.73;5.78;;;;;;;23.64;54.72;100559.75;5019342;28;20498;-77
2022/09/09 06:15:56;;;;;;;9.35;5.43;;;;;;;22.75;54.21;100447.31;5020168;28;20047;-78
2022/09/09 06:18:21;;;;;;;13.93;5.03;;;;;;;22.85;56.36;100477.19;5023065;28;20037;-77
2022/09/09 06:20:55;;;;;;;12.55;4.50;;;;;;;22.50;55.93;100458.38;5023525;28;20045;-77
2022/09/09 06:23:21;;;;;;;8.63;5.18;;;;;;;22.50;55.98;100436.09;5019802;28;20156;-78
2022/09/09 06:25:46;;;;;;;21.60;5.07;;;;;;;23.12;57.99;100552.56;5022607;28;20052;-76
2022/09/09 06:28:13;;;;;;;25.52;5.18;;;;;;;23.31;59.46;100565.91;5015854;28;20069;-76
2022/09/09 06:30:39;;;;;;;53.40;7.90;;;;;;;22.73;61.95;100470.63;5018210;28;20037;-80
2022/09/09 06:33:05;;;;;;;7.03;4.22;;;;;;;23.48;63.72;100602.53;5020712;28;20095;-82
2022/09/09 06:35:30;;;;;;;12.07;5.05;;;;;;;22.54;60.74;100486.69;5019940;28;20374;-77
2022/09/09 06:37:58;;;;;;;8.52;4.28;;;;;;;22.66;55.94;100604.75;5018361;28;20402;-77
2022/09/09 06:40:24;;;;;;;9.23;4.18;;;;;;;22.36;55.93;100601.69;5001602;28;20053;-76
2022/09/09 06:42:50;;;;;;;12.50;3.85;;;;;;;22.44;56.29;100608.44;5018115;28;20095;-72
2022/09/09 06:45:17;;;;;;;8.50;4.57;;;;;;;21.88;58.16;100512.97;5020894;28;20036;-82
2022/09/09 06:47:42;;;;;;;9.10;3.83;;;;;;;22.66;61.00;100602.94;5022786;28;20512;-73
2022/09/09 06:50:08;;;;;;;6.07;3.50;;;;;;;21.69;59.22;100471.06;5023827;28;20061;-72
2022/09/09 06:52:34;;;;;;;9.18;3.92;;;;;;;22.66;57.25;100594.03;4998971;28;20053;-71
2022/09/09 06:54:59;;;;;;;10.15;4.35;;;;;;;22.00;56.49;100519.53;5019533;28;20076;-77
2022/09/09 06:57:24;;;;;;;7.70;4.03;;;;;;;22.72;61.11;100569.69;5023674;28;20101;-73
2022/09/09 06:59:50;;;;;;;12.13;4.28;;;;;;;22.83;59.48;100598.59;5018528;28;20179;-78
2022/09/09 07:02:16;;;;;;;10.48;4.53;;;;;;;22.52;59.97;100506.44;5000487;28;20187;-76
2022/09/09 07:04:41;;;;;;;10.65;4.75;;;;;;;22.86;59.47;100593.09;5019096;28;20046;-74
2022/09/09 07:07:07;;;;;;;8.68;4.65;;;;;;;22.91;56.07;100617.84;5020451;28;20120;-73
2022/09/09 07:09:33;;;;;;;9.20;4.65;;;;;;;22.06;57.84;100490.75;5019996;28;20749;-69
2022/09/09 07:11:59;;;;;;;11.40;5.35;;;;;;;22.92;58.82;100577.63;5018651;28;20061;-72
2022/09/09 07:14:25;;;;;;;8.65;3.50;;;;;;;23.22;60.40;100597.63;5017964;28;20565;-72
2022/09/09 07:16:50;;;;;;;12.52;4.80;;;;;;;22.20;59.80;100459.84;5021830;28;20050;-73
2022/09/09 07:19:16;;;;;;;11.15;4.55;;;;;;;23.10;59.51;100586.56;5011405;28;21949;-74
2022/09/09 07:21:42;;;;;;;13.57;4.53;;;;;;;22.80;55.18;100505.94;4988417;28;20051;-74
2022/09/09 07:24:09;;;;;;;10.85;4.45;;;;;;;23.46;55.39;100595.53;4975847;28;20037;-74
2022/09/09 07:26:37;;;;;;;11.15;4.93;;;;;;;22.82;57.56;100453.22;5008193;28;20053;-77
2022/09/09 07:29:03;;;;;;;10.82;4.38;;;;;;;23.37;56.85;100549.53;5008253;28;20054;-74
2022/09/09 07:31:36;;;;;;;11.32;5.07;;;;;;;23.74;57.58;100601.25;5010457;28;20144;-74
2022/09/09 07:34:02;;;;;;;9.15;5.03;;;;;;;23.85;57.75;100606.03;5008610;28;20057;-73
2022/09/09 07:36:33;;;;;;;18.35;4.55;;;;;;;23.44;58.16;100487.63;5010962;28;20564;-78
2022/09/09 07:39:19;;;;;;;6.13;3.92;;;;;;;24.15;57.83;100602.69;5013238;28;20180;-76
2022/09/09 07:41:47;;;;;;;8.13;4.20;;;;;;;23.99;56.44;100583.88;4994955;28;20052;-77
2022/09/09 07:44:18;;;;;;;8.30;4.18;;;;;;;23.37;58.06;100487.06;4986480;28;22089;-76
2022/09/09 07:46:45;;;;;;;9.57;5.13;;;;;;;23.83;54.46;100585.63;5004104;28;20067;-77
2022/09/09 07:49:11;;;;;;;9.15;4.28;;;;;;;23.83;59.96;100553.47;5007433;28;20060;-76
2022/09/09 07:51:40;;;;;;;11.50;3.63;;;;;;;23.57;59.76;100481.50;5007315;28;20479;-75
2022/09/09 07:54:09;;;;;;;11.10;5.63;;;;;;;24.10;58.68;100592.22;5012922;28;20069;-75
2022/09/09 07:56:35;;;;;;;9.73;4.95;;;;;;;24.29;59.19;100605.50;4993304;28;20128;-74
2022/09/09 07:59:01;;;;;;;10.52;4.35;;;;;;;24.29;60.10;100593.91;5008671;28;20045;-72
2022/09/09 08:01:30;;;;;;;8.20;5.22;;;;;;;23.79;58.37;100516.13;5003974;28;20050;-74
2022/09/09 08:04:04;;;;;;;11.93;5.55;;;;;;;23.48;54.06;100495.38;5007433;28;20060;-75
2022/09/09 08:06:33;;;;;;;16.67;4.55;;;;;;;23.58;59.00;100493.97;4992405;28;20127;-76
2022/09/09 08:08:59;;;;;;;5.57;4.45;;;;;;;24.37;58.98;100605.97;5007619;28;20045;-75
2022/09/09 08:11:27;;;;;;;9.35;5.25;;;;;;;23.38;51.49;100524.47;4992981;28;20080;-74
2022/09/09 08:13:53;;;;;;;9.13;4.35;;;;;;;24.20;57.34;100600.63;5008359;28;20073;-76
2022/09/09 08:16:21;;;;;;;6.40;4.38;;;;;;;23.67;55.92;100491.75;5009141;28;20041;-75
2022/09/09 08:18:49;;;;;;;12.88;5.85;;;;;;;24.05;56.72;100553.19;5011997;28;20568;-77
2022/09/09 08:21:21;;;;;;;11.20;4.60;;;;;;;24.53;55.78;100595.25;5010135;28;20064;-70
2022/09/09 08:23:47;;;;;;;11.18;6.07;;;;;;;23.93;50.68;100469.81;5012107;28;20487;-77
2022/09/09 08:26:23;;;;;;;14.90;5.13;;;;;;;24.66;56.54;100589.25;5014488;28;20143;-78
2022/09/09 08:28:51;;;;;;;7.38;5.15;;;;;;;23.88;56.48;100454.91;5007266;28;20060;-78
2022/09/09 08:31:30;;;;;;;15.30;5.25;;;;;;;23.98;53.50;100470.41;5012350;28;20049;-81
2022/09/09 08:33:59;;;;;;;11.00;5.80;;;;;;;24.14;53.10;100472.25;5010546;28;20053;-79
2022/09/09 08:36:27;;;;;;;15.30;5.47;;;;;;;24.22;54.45;100483.41;4996979;28;20049;-75
2022/09/09 08:38:55;;;;;;;18.08;5.63;;;;;;;24.77;51.13;100578.75;5011640;28;20088;-80
2022/09/09 08:41:29;;;;;;;15.30;6.07;;;;;;;24.97;53.40;100585.69;5013732;28;20038;-82
2022/09/09 08:44:06;;;;;;;13.85;5.70;;;;;;;24.23;50.01;100453.84;5013571;28;20042;-83
2022/09/09 08:46:58;;;;;;;14.02;5.57;;;;;;;24.85;53.56;100571.13;5010615;28;20617;-83
2022/09/09 08:49:55;;;;;;;10.55;4.63;;;;;;;24.58;53.35;100570.84;5004987;28;20049;-82
2022/09/09 08:52:27;;;;;;;9.70;6.32;;;;;;;24.79;53.21;100571.47;5010520;28;20050;-83
2022/09/09 08:54:55;;;;;;;30.73;6.50;;;;;;;24.63;52.71;100539.25;5015019;28;20032;-83
2022/09/09 08:57:27;;;;;;;13.80;4.88;;;;;;;24.33;52.43;100472.97;4995252;28;20049;-75
2022/09/09 08:59:55;;;;;;;12.97;5.77;;;;;;;24.89;52.31;100519.00;5009845;28;20169;-76
2022/09/09 09:02:43;;;;;;;13.15;6.57;;;;;;;25.13;52.29;100546.25;5014122;28;20037;-79
2022/09/09 09:05:35;;;;;;;9.10;5.55;;;;;;;25.01;52.34;100552.34;5012777;28;20049;-79
2022/09/09 09:08:30;;;;;;;13.80;5.40;;;;;;;24.75;52.63;100552.00;4977457;28;20147;-83
2022/09/09 09:11:00;;;;;;;19.83;6.07;;;;;;;25.05;51.08;100530.59;5013051;28;20137;-78
2022/09/09 09:13:40;;;;;;;8.10;5.05;;;;;;;25.29;50.76;100543.56;5011589;28;20053;-75
2022/09/09 09:16:32;;;;;;;16.98;4.93;;;;;;;25.36;50.77;100530.63;5013147;28;20045;-78
2022/09/09 09:19:04;;;;;;;14.65;6.03;;;;;;;25.80;49.85;100540.47;5015230;28;20044;-78
2022/09/09 09:21:49;;;;;;;11.27;6.57;;;;;;;25.54;50.89;100540.25;5022454;28;20045;-76
2022/09/09 09:24:22;;;;;;;9.70;5.30;;;;;;;25.52;49.46;100539.50;5018072;28;20167;-78
2022/09/09 09:26:47;;;;;;;13.38;6.00;;;;;;;25.78;47.61;100534.31;5020448;28;20056;-80
2022/09/09 09:29:19;;;;;;;14.70;5.70;;;;;;;25.38;47.57;100446.28;5017319;28;20493;-77
2022/09/09 09:31:55;;;;;;;9.30;5.40;;;;;;;26.15;47.99;100538.31;5020907;28;20057;-76
2022/09/09 09:34:21;;;;;;;11.27;6.78;;;;;;;25.12;49.54;100418.28;5017247;28;20468;-78
2022/09/09 09:36:52;;;;;;;10.48;5.65;;;;;;;25.75;49.85;100540.75;5017002;28;20029;-74
2022/09/09 09:39:36;;;;;;;14.27;5.68;;;;;;;25.92;46.79;100544.25;5011942;28;20037;-79
2022/09/09 09:42:14;;;;;;;11.25;4.85;;;;;;;25.35;46.03;100408.00;5010341;28;20128;-77
2022/09/09 09:44:40;;;;;;;12.82;8.40;;;;;;;26.08;48.21;100535.16;5009423;28;20053;-75
2022/09/09 09:47:12;;;;;;;15.00;5.75;;;;;;;25.69;49.56;100533.09;5011791;28;20053;-73
2022/09/09 09:49:39;;;;;;;12.85;4.75;;;;;;;25.66;47.65;100423.06;5019772;28;20061;-73
2022/09/09 09:52:07;;;;;;;17.70;5.68;;;;;;;26.15;47.19;100500.66;5018260;28;20442;-78
2022/09/09 09:54:41;;;;;;;9.88;5.20;;;;;;;26.74;46.42;100528.25;4997688;28;20485;-78
2022/09/09 09:57:18;;;;;;;18.73;5.68;;;;;;;26.37;44.79;100397.06;4999562;28;20505;-75
2022/09/09 09:59:44;;;;;;;8.30;4.57;;;;;;;26.45;44.09;100461.97;5015430;28;20061;-74
2022/09/09 10:02:20;;;;;;;8.43;5.20;;;;;;;26.75;46.96;100529.13;4998469;28;20554;-75
2022/09/09 10:04:47;;;;;;;17.13;6.10;;;;;;;26.17;48.65;100532.84;5019452;28;20067;-76
2022/09/09 10:07:21;;;;;;;7.32;5.25;;;;;;;26.16;48.68;100533.81;5016815;28;20130;-83
2022/09/09 10:09:54;;;;;;;15.55;5.25;;;;;;;25.30;48.41;100389.47;5011902;28;20124;-78
2022/09/09 10:12:38;;;;;;;7.65;5.10;;;;;;;26.58;46.59;100513.22;5020834;28;20140;-77
2022/09/09 10:15:36;;;;;;;7.93;6.00;;;;;;;26.61;47.00;100523.78;4996832;28;20050;-75
2022/09/09 10:18:22;;;;;;;9.93;5.78;;;;;;;26.68;46.12;100503.56;5019167;28;20145;-75
2022/09/09 10:20:58;;;;;;;11.93;5.18;;;;;;;26.33;44.63;100426.81;5013489;28;20057;-78
2022/09/09 10:23:47;;;;;;;9.40;5.68;;;;;;;26.95;46.25;100523.28;5010835;28;20188;-76
2022/09/09 10:26:53;;;;;;;24.83;7.20;;;;;;;26.82;46.51;100540.34;4974531;28;20069;-78
2022/09/09 10:29:55;;;;;;;9.52;5.63;;;;;;;26.55;47.78;100526.84;5012390;28;20045;-79
2022/09/09 10:32:42;;;;;;;10.13;5.55;;;;;;;26.47;48.13;100530.03;4988386;28;20068;-76
2022/09/09 10:35:42;;;;;;;14.10;5.40;;;;;;;26.65;47.59;100533.38;5013299;28;20033;-77
2022/09/09 10:38:38;;;;;;;12.75;5.15;;;;;;;26.85;46.17;100529.38;4988601;28;20152;-80
2022/09/09 10:41:24;;;;;;;9.68;5.60;;;;;;;26.81;45.66;100523.34;5012815;28;20417;-78
2022/09/09 10:44:14;;;;;;;14.52;6.25;;;;;;;27.08;45.33;100517.91;5011506;28;20061;-77
2022/09/09 10:47:05;;;;;;;9.43;5.93;;;;;;;26.45;45.96;100392.00;5012021;28;20477;-76
2022/09/09 10:49:55;;;;;;;9.98;6.00;;;;;;;27.13;46.32;100488.84;5015383;28;20045;-78
2022/09/09 10:52:44;;;;;;;12.18;5.22;;;;;;;27.07;46.50;100500.03;5014368;28;20053;-79
2022/09/09 10:55:25;;;;;;;10.88;5.15;;;;;;;26.94;46.07;100488.34;4997285;28;20045;-78
2022/09/09 10:57:53;;;;;;;12.52;4.88;;;;;;;27.61;43.86;100500.91;5014621;28;20052;-75
2022/09/09 11:00:25;;;;;;;10.55;4.82;;;;;;;27.67;43.81;100487.00;4995890;28;20033;-77
2022/09/09 11:02:58;;;;;;;9.15;4.90;;;;;;;26.77;44.72;100357.56;5014268;28;20053;-76
2022/09/09 11:05:33;;;;;;;11.70;5.65;;;;;;;27.56;44.51;100503.94;5011419;28;20045;-78
2022/09/09 11:08:11;;;;;;;8.02;5.05;;;;;;;27.14;42.85;100411.59;5014224;28;20072;-80
2022/09/09 11:10:45;;;;;;;8.57;4.63;;;;;;;27.54;43.89;100495.94;4997264;28;20088;-75
2022/09/09 11:13:25;;;;;;;13.10;5.97;;;;;;;26.90;42.96;100374.63;5015416;28;20049;-79
2022/09/09 11:16:04;;;;;;;9.52;5.35;;;;;;;27.62;43.57;100489.16;5012757;28;20095;-78
2022/09/09 11:18:36;;;;;;;12.43;5.57;;;;;;;27.01;46.65;100470.81;4995437;28;20052;-78
2022/09/09 11:21:07;;;;;;;20.23;5.68;;;;;;;27.10;46.39;100470.19;5016399;28;20081;-76
2022/09/09 11:23:52;;;;;;;9.60;5.60;;;;;;;27.13;46.51;100491.53;5016406;28;20045;-75
2022/09/09 11:26:29;;;;;;;11.45;4.43;;;;;;;26.99;42.38;100372.22;4997137;28;20168;-75
2022/09/09 11:29:24;;;;;;;7.75;4.68;;;;;;;27.81;42.83;100494.09;5017135;28;20127;-78
2022/09/09 11:32:05;;;;;;;13.70;5.97;;;;;;;27.82;44.96;100476.97;5012167;28;20065;-75
2022/09/09 11:34:30;;;;;;;12.27;4.75;;;;;;;27.80;46.07;100487.84;5014030;28;20046;-77
2022/09/09 11:37:10;;;;;;;6.35;4.57;;;;;;;27.80;45.56;100479.75;5015095;28;20503;-76
2022/09/09 11:39:48;;;;;;;9.25;4.55;;;;;;;27.71;46.27;100485.81;5015857;28;20044;-77
2022/09/09 11:42:13;;;;;;;17.27;5.78;;;;;;;27.49;46.19;100491.84;5012967;28;20120;-77